Time;durP1;ratioP1;P1;durP2;ratioP2;P2;SDS_P1;SDS_P2;PMS_P1;PMS_P2;Temp;Humidity;BMP_temperature;BMP_pressure;BME280_temperature;BME280_humidity;BME280_pressure;Samples;Min_cycle;Max_cycle;Signal;HPM_P1;HPM_P2
2021/05/24 00:00:01;;;;;;;1.67;1.17;;;512.10;1817.60;;;;;;5040379;28;20025;-88
2021/05/24 00:02:29;;;;;;;1.45;1.08;;;512.00;1817.60;;;;;;5041890;28;20025;-87
2021/05/24 00:04:58;;;;;;;2.10;1.55;;;487.30;1817.60;;;;;;5040157;28;20032;-87
2021/05/24 00:08:10;;;;;;;2.08;1.35;;;487.30;1817.60;;;;;;5039680;28;20021;-88
2021/05/24 00:10:38;;;;;;;1.80;1.05;;;487.30;1843.20;;;;;;5040410;28;20507;-86
2021/05/24 00:13:12;;;;;;;2.35;0.98;;;487.30;1817.60;;;;;;5040089;28;20428;-86
2021/05/24 00:18:31;;;;;;;2.53;1.08;;;487.10;1843.20;;;;;;5057292;28;20441;-87
2021/05/24 00:21:04;;;;;;;2.33;0.90;;;487.00;1868.80;;;;;;5036459;28;20052;-86
2021/05/24 00:24:08;;;;;;;1.55;1.00;;;486.60;1868.80;;;;;;5052799;28;20198;-87
2021/05/24 00:26:46;;;;;;;4.22;0.98;;;486.80;1894.40;;;;;;5037345;28;20029;-87
2021/05/24 00:29:19;;;;;;;1.60;0.93;;;486.60;1868.80;;;;;;5036263;28;20029;-87
2021/05/24 00:32:19;;;;;;;0.93;0.82;;;486.70;1868.80;;;;;;5036684;28;20030;-86
2021/05/24 00:35:15;;;;;;;1.52;1.15;;;486.60;1868.80;;;;;;5037920;28;20033;-87
2021/05/24 00:37:41;;;;;;;1.40;1.00;;;461.70;1894.40;;;;;;5036983;28;20021;-86
2021/05/24 00:40:16;;;;;;;1.92;1.15;;;461.70;1894.40;;;;;;5036347;28;20017;-87
2021/05/24 00:42:42;;;;;;;1.70;0.80;;;486.40;1894.40;;;;;;5036606;28;20470;-87
2021/05/24 00:45:08;;;;;;;4.07;1.30;;;486.60;1868.80;;;;;;5036159;28;20030;-87
2021/05/24 00:47:44;;;;;;;1.85;1.00;;;461.60;1920.00;;;;;;5036412;28;20523;-87
2021/05/24 00:50:14;;;;;;;2.45;1.20;;;461.60;1920.00;;;;;;5035093;28;20068;-86
2021/05/24 00:53:07;;;;;;;1.35;0.93;;;461.70;1920.00;;;;;;5037361;28;20040;-88
2021/05/24 00:55:42;;;;;;;2.08;1.35;;;461.70;1945.60;;;;;;5036683;28;20021;-85
2021/05/24 00:58:28;;;;;;;1.30;0.90;;;461.50;1894.40;;;;;;5034871;28;20037;-86
2021/05/24 01:00:57;;;;;;;1.92;1.00;;;486.50;1894.40;;;;;;5035678;28;20536;-86
2021/05/24 01:03:46;;;;;;;3.25;1.00;;;486.50;1868.80;;;;;;5035668;28;20029;-87
2021/05/24 01:06:12;;;;;;;2.72;1.00;;;486.50;1894.40;;;;;;5035750;28;20029;-86
2021/05/24 01:08:38;;;;;;;1.55;1.05;;;486.50;1894.40;;;;;;5036051;28;20493;-87
2021/05/24 01:11:13;;;;;;;2.88;1.00;;;486.50;1894.40;;;;;;5035603;28;20022;-86
2021/05/24 01:13:57;;;;;;;1.30;0.98;;;486.50;1894.40;;;;;;5036859;28;20029;-86
2021/05/24 01:16:23;;;;;;;3.00;1.00;;;461.60;1920.00;;;;;;5037226;28;20025;-86
2021/05/24 01:18:52;;;;;;;1.88;1.00;;;461.50;1920.00;;;;;;5035868;28;20036;-86
2021/05/24 01:21:19;;;;;;;1.38;1.00;;;461.40;1945.60;;;;;;5031591;23;20060;-87
2021/05/24 01:23:55;;;;;;;0.77;0.70;;;461.30;1971.20;;;;;;5031934;28;20034;-84
2021/05/24 01:26:33;;;;;;;2.03;0.82;;;461.40;1945.60;;;;;;5022847;23;20058;-86
2021/05/24 01:29:19;;;;;;;1.08;0.82;;;461.40;1945.60;;;;;;5015409;28;20042;-87
2021/05/24 01:31:49;;;;;;;1.42;0.82;;;461.20;1971.20;;;;;;5016590;28;20052;-86
2021/05/24 01:34:34;;;;;;;1.02;0.75;;;461.10;1971.20;;;;;;5015180;28;20064;-86
2021/05/24 01:37:41;;;;;;;1.20;1.10;;;461.10;1971.20;;;;;;5014996;28;20029;-87
2021/05/24 01:40:08;;;;;;;1.23;0.90;;;436.10;1996.80;;;;;;4940402;29;20038;-85
2021/05/24 01:42:36;;;;;;;1.60;1.10;;;460.80;2022.40;;;;;;4940277;29;20496;-86
2021/05/24 01:45:11;;;;;;;19.85;2.05;;;460.90;1996.80;;;;;;4940419;29;20027;-86
2021/05/24 01:47:37;;;;;;;1.13;0.80;;;460.90;1996.80;;;;;;4941882;29;20039;-86
2021/05/24 01:50:06;;;;;;;5.38;1.08;;;461.00;1971.20;;;;;;4942009;29;20035;-86
2021/05/24 01:52:31;;;;;;;2.05;1.10;;;460.80;1996.80;;;;;;4940530;29;20595;-86
2021/05/24 01:54:57;;;;;;;1.35;1.10;;;461.00;1996.80;;;;;;4939727;29;20047;-86
2021/05/24 01:57:23;;;;;;;1.17;1.08;;;461.00;1996.80;;;;;;4939648;29;20031;-86
2021/05/24 01:59:49;;;;;;;1.05;0.70;;;461.10;1971.20;;;;;;4940265;29;20119;-86
2021/05/24 02:02:16;;;;;;;2.63;0.95;;;461.20;1945.60;;;;;;4939990;29;20108;-87
2021/05/24 02:04:42;;;;;;;1.23;0.77;;;461.20;1945.60;;;;;;4939031;29;20038;-87
2021/05/24 02:07:10;;;;;;;1.67;1.20;;;461.30;1945.60;;;;;;4940050;29;20031;-85
2021/05/24 02:09:36;;;;;;;0.88;0.88;;;461.30;1945.60;;;;;;4940205;29;20066;-86
2021/05/24 02:12:01;;;;;;;1.85;0.90;;;461.30;1945.60;;;;;;4940102;29;20023;-86
2021/05/24 02:14:27;;;;;;;0.73;0.60;;;461.20;1920.00;;;;;;4991475;28;20368;-85
2021/05/24 02:16:54;;;;;;;0.93;0.85;;;461.20;1920.00;;;;;;5014676;28;20021;-86
2021/05/24 02:19:23;;;;;;;0.77;0.63;;;461.20;1920.00;;;;;;5070309;23;20026;-85
2021/05/24 02:21:48;;;;;;;1.40;1.30;;;461.20;1894.40;;;;;;5015601;28;20100;-85
2021/05/24 02:24:15;;;;;;;1.23;0.70;;;461.20;1894.40;;;;;;5015332;28;20030;-86
2021/05/24 02:26:43;;;;;;;1.38;0.70;;;461.00;1894.40;;;;;;5015116;28;20061;-86
2021/05/24 02:29:09;;;;;;;0.73;0.70;;;461.00;1920.00;;;;;;5015034;28;20034;-86
2021/05/24 02:31:39;;;;;;;2.50;1.00;;;461.00;1920.00;;;;;;5015852;28;20070;-86
2021/05/24 02:34:06;;;;;;;2.45;0.90;;;461.20;1894.40;;;;;;5024967;28;20018;-85
2021/05/24 02:36:35;;;;;;;2.03;0.90;;;461.00;1894.40;;;;;;5036668;28;20057;-87
2021/05/24 02:39:12;;;;;;;1.67;1.00;;;461.00;1894.40;;;;;;5037056;28;20021;-85
2021/05/24 02:41:44;;;;;;;2.47;0.80;;;461.00;1894.40;;;;;;5041620;28;20018;-86
2021/05/24 02:47:06;;;;;;;1.92;0.80;;;436.10;1868.80;;;;;;5042897;28;20029;-86
2021/05/24 02:49:36;;;;;;;4.05;1.05;;;460.90;1868.80;;;;;;5042232;28;20041;-85
2021/05/24 02:52:02;;;;;;;7.88;2.80;;;460.90;1868.80;;;;;;5026864;28;20042;-86
2021/05/24 02:54:28;;;;;;;1.52;1.00;;;460.90;1868.80;;;;;;5019117;28;20558;-87
2021/05/24 02:56:58;;;;;;;1.48;0.73;;;460.80;1868.80;;;;;;5019034;28;20058;-85
2021/05/24 02:59:33;;;;;;;1.77;0.80;;;436.10;1843.20;;;;;;5018766;28;20026;-86
2021/05/24 03:02:01;;;;;;;1.33;0.90;;;460.90;1868.80;;;;;;5019106;28;20030;-86
2021/05/24 03:04:29;;;;;;;1.58;0.90;;;460.90;1843.20;;;;;;5018705;28;20026;-85
2021/05/24 03:06:58;;;;;;;1.08;0.90;;;460.90;1843.20;;;;;;5021107;28;20038;-86
2021/05/24 03:09:29;;;;;;;2.15;0.70;;;461.00;1817.60;;;;;;5017855;28;20041;-86
2021/05/24 03:11:55;;;;;;;0.95;0.70;;;460.90;1817.60;;;;;;5019290;28;20058;-86
2021/05/24 03:14:39;;;;;;;1.80;0.90;;;460.90;1817.60;;;;;;5018919;28;20521;-86
2021/05/24 03:17:23;;;;;;;4.03;0.80;;;460.90;1792.00;;;;;;5019070;28;20026;-86
2021/05/24 03:19:55;;;;;;;1.63;0.77;;;460.90;1817.60;;;;;;5016222;28;20034;-88
2021/05/24 03:22:21;;;;;;;1.27;0.90;;;460.80;1817.60;;;;;;5028542;28;20162;-85
2021/05/24 03:24:47;;;;;;;1.15;0.77;;;460.80;1817.60;;;;;;5019793;28;20033;-86
2021/05/24 03:27:23;;;;;;;2.17;0.93;;;460.80;1817.60;;;;;;5020420;28;20385;-87
2021/05/24 03:29:48;;;;;;;3.75;1.10;;;460.80;1817.60;;;;;;5018587;28;20042;-86
2021/05/24 03:32:15;;;;;;;1.15;0.95;;;460.80;1817.60;;;;;;5019275;28;20036;-87
2021/05/24 03:34:52;;;;;;;0.98;0.80;;;436.10;1766.40;;;;;;5029433;28;20033;-87
2021/05/24 03:37:18;;;;;;;1.20;0.90;;;460.80;1792.00;;;;;;5020807;28;20022;-86
2021/05/24 03:39:59;;;;;;;2.67;0.80;;;460.90;1792.00;;;;;;5018358;28;20538;-86
2021/05/24 03:42:30;;;;;;;1.55;0.90;;;460.80;1817.60;;;;;;5003681;28;20045;-86
2021/05/24 03:45:01;;;;;;;1.55;1.38;;;460.80;1792.00;;;;;;5017293;28;20022;-85
2021/05/24 03:47:27;;;;;;;0.70;0.70;;;460.80;1766.40;;;;;;5017720;28;20028;-86
2021/05/24 03:50:11;;;;;;;1.00;0.88;;;460.80;1766.40;;;;;;5017969;28;20038;-86
2021/05/24 03:52:37;;;;;;;3.00;1.10;;;460.80;1792.00;;;;;;5019018;28;20124;-88
2021/05/24 03:55:05;;;;;;;1.40;0.95;;;460.90;1766.40;;;;;;5018116;28;20117;-86
2021/05/24 03:57:31;;;;;;;2.05;1.23;;;460.90;1766.40;;;;;;5019934;28;20022;-86
2021/05/24 04:00:19;;;;;;;2.22;1.17;;;460.80;1766.40;;;;;;5019476;28;20079;-86
2021/05/24 04:03:26;;;;;;;1.58;0.98;;;460.90;1740.80;;;;;;4998294;28;20027;-87
2021/05/24 04:06:01;;;;;;;1.58;1.10;;;461.00;1766.40;;;;;;5008872;28;20026;-85
2021/05/24 04:08:33;;;;;;;1.20;0.85;;;460.90;1740.80;;;;;;5019068;28;20038;-86
2021/05/24 04:11:24;;;;;;;0.88;0.77;;;460.90;1715.20;;;;;;5015807;28;20033;-86
2021/05/24 04:13:55;;;;;;;1.55;0.95;;;461.00;1740.80;;;;;;5019227;28;20026;-86
2021/05/24 04:16:43;;;;;;;1.33;0.73;;;461.00;1715.20;;;;;;5016738;28;20032;-86
2021/05/24 04:19:21;;;;;;;1.17;0.85;;;461.10;1715.20;;;;;;5017664;28;20026;-86
2021/05/24 04:21:53;;;;;;;0.85;0.70;;;461.00;1689.60;;;;;;5020655;28;20097;-86
2021/05/24 04:24:37;;;;;;;2.55;0.70;;;461.00;1689.60;;;;;;5020553;28;20029;-86
2021/05/24 04:27:47;;;;;;;1.05;0.60;;;460.90;1715.20;;;;;;5018341;28;20040;-86
2021/05/24 04:33:39;;;;;;;1.52;0.82;;;460.80;1715.20;;;;;;5017016;28;20210;-86
2021/05/24 04:36:04;;;;;;;2.95;1.02;;;436.10;1740.80;;;;;;5017438;28;20053;-86
2021/05/24 04:38:46;;;;;;;1.02;0.77;;;460.80;1766.40;;;;;;5016163;28;20088;-86
2021/05/24 04:41:23;;;;;;;3.70;0.90;;;436.00;1715.20;;;;;;5012693;28;20058;-86
2021/05/24 04:44:09;;;;;;;1.27;0.80;;;436.10;1715.20;;;;;;4987619;28;20072;-88
2021/05/24 04:46:50;;;;;;;1.05;0.85;;;461.00;1715.20;;;;;;4995032;28;20034;-87
2021/05/24 04:49:27;;;;;;;1.65;0.73;;;461.00;1715.20;;;;;;4964919;28;20065;-86
2021/05/24 04:51:53;;;;;;;2.55;1.02;;;461.10;1715.20;;;;;;4980129;28;20073;-85
2021/05/24 04:54:28;;;;;;;3.95;1.00;;;461.20;1715.20;;;;;;4988878;28;20023;-87
2021/05/24 04:56:57;;;;;;;3.35;1.85;;;461.40;1689.60;;;;;;4960164;28;20053;-85
2021/05/24 04:59:23;;;;;;;2.13;0.77;;;461.30;1689.60;;;;;;4965337;28;20026;-84
2021/05/24 05:01:54;;;;;;;5.22;1.38;;;461.30;1689.60;;;;;;4979311;28;20057;-85
2021/05/24 05:04:20;;;;;;;4.97;1.88;;;461.30;1689.60;;;;;;4978549;28;20487;-86
2021/05/24 05:07:02;;;;;;;1.88;1.20;;;461.60;1689.60;;;;;;4979677;28;20045;-85
2021/05/24 05:09:33;;;;;;;3.10;1.10;;;461.60;1689.60;;;;;;4975688;28;20098;-86
2021/05/24 05:11:59;;;;;;;1.75;1.20;;;486.50;1689.60;;;;;;4975327;28;20480;-85
2021/05/24 05:14:35;;;;;;;3.47;1.00;;;486.60;1664.00;;;;;;4974876;28;20031;-84
2021/05/24 05:17:01;;;;;;;1.50;1.08;;;486.80;1664.00;;;;;;4983125;28;20035;-85
2021/05/24 05:19:27;;;;;;;6.40;1.00;;;486.80;1612.80;;;;;;5004691;28;20034;-84
2021/05/24 05:22:20;;;;;;;1.55;1.15;;;486.90;1612.80;;;;;;5015320;28;20045;-85
2021/05/24 05:24:45;;;;;;;0.85;0.85;;;487.20;1587.20;;;;;;4921814;29;20082;-84
2021/05/24 05:27:26;;;;;;;1.50;0.88;;;487.00;1612.80;;;;;;4921228;29;20137;-85
2021/05/24 05:29:56;;;;;;;3.33;1.05;;;487.10;1587.20;;;;;;4921791;29;20103;-83
2021/05/24 05:32:37;;;;;;;2.28;1.10;;;487.00;1587.20;;;;;;4921895;29;20063;-85
2021/05/24 05:35:19;;;;;;;3.35;1.20;;;487.20;1587.20;;;;;;4920375;29;20031;-86
2021/05/24 05:37:48;;;;;;;2.20;1.08;;;487.20;1587.20;;;;;;4921813;29;20032;-89
2021/05/24 05:40:19;;;;;;;2.15;1.10;;;487.10;1612.80;;;;;;4922088;29;20023;-86
2021/05/24 05:42:47;;;;;;;1.75;1.27;;;487.10;1561.60;;;;;;4921429;29;20063;-85
2021/05/24 05:45:24;;;;;;;1.30;1.20;;;487.00;1612.80;;;;;;4920892;29;20028;-86
2021/05/24 05:48:01;;;;;;;3.00;1.10;;;487.00;1587.20;;;;;;4920657;29;20031;-85
2021/05/24 05:50:40;;;;;;;2.63;1.20;;;486.90;1587.20;;;;;;4921250;29;20055;-85
2021/05/24 05:53:24;;;;;;;3.75;1.00;;;486.70;1612.80;;;;;;4921534;29;20023;-85
2021/05/24 05:56:11;;;;;;;2.83;1.13;;;486.80;1612.80;;;;;;4921590;29;20436;-86
2021/05/24 05:58:49;;;;;;;2.15;1.10;;;486.60;1638.40;;;;;;4921871;29;20035;-86
2021/05/24 06:01:14;;;;;;;2.15;1.35;;;486.50;1664.00;;;;;;4947503;28;20120;-87
2021/05/24 06:04:24;;;;;;;2.35;1.42;;;486.50;1664.00;;;;;;5014347;28;20137;-87
2021/05/24 06:06:50;;;;;;;2.03;1.73;;;486.40;1664.00;;;;;;5045503;23;20140;-85
2021/05/24 06:09:16;;;;;;;2.83;1.45;;;486.50;1664.00;;;;;;5034168;28;20484;-85
2021/05/24 06:11:41;;;;;;;2.20;1.30;;;486.60;1664.00;;;;;;5034319;28;20031;-85
2021/05/24 06:14:07;;;;;;;4.30;1.55;;;486.60;1664.00;;;;;;5035326;28;20030;-84
2021/05/24 06:16:33;;;;;;;2.50;1.10;;;486.50;1664.00;;;;;;5017351;28;20025;-84
2021/05/24 06:18:58;;;;;;;8.15;2.63;;;486.60;1664.00;;;;;;5020348;28;20025;-82
2021/05/24 06:21:24;;;;;;;3.33;1.52;;;486.60;1689.60;;;;;;5041004;28;20108;-82
2021/05/24 06:23:53;;;;;;;4.03;1.35;;;486.80;1638.40;;;;;;5036782;28;20453;-83
2021/05/24 06:26:19;;;;;;;3.70;1.50;;;486.70;1638.40;;;;;;5023322;28;20026;-84
2021/05/24 06:28:49;;;;;;;2.15;1.10;;;486.50;1664.00;;;;;;5023571;28;20029;-83
2021/05/24 06:31:14;;;;;;;3.35;1.55;;;486.50;1664.00;;;;;;5019712;28;20482;-84
2021/05/24 06:33:41;;;;;;;2.65;1.55;;;486.50;1689.60;;;;;;5034622;28;20030;-83
2021/05/24 06:36:07;;;;;;;4.90;1.60;;;461.60;1715.20;;;;;;5027926;28;20093;-82
2021/05/24 06:38:32;;;;;;;5.85;1.20;;;461.70;1715.20;;;;;;5036966;28;20061;-81
2021/05/24 06:40:58;;;;;;;2.95;1.13;;;461.60;1740.80;;;;;;5032073;28;20056;-82
2021/05/24 06:43:24;;;;;;;3.88;1.60;;;461.70;1740.80;;;;;;5021023;28;20088;-82
2021/05/24 06:45:52;;;;;;;1.95;1.00;;;486.40;1740.80;;;;;;5018632;28;20029;-82
2021/05/24 06:48:17;;;;;;;4.65;0.93;;;486.40;1664.00;;;;;;5020277;28;20428;-82
2021/05/24 06:50:43;;;;;;;1.55;0.98;;;486.40;1664.00;;;;;;5039248;28;20148;-82
2021/05/24 06:53:09;;;;;;;2.53;1.08;;;486.50;1664.00;;;;;;5016072;28;20045;-81
2021/05/24 06:55:35;;;;;;;0.82;0.77;;;486.80;1664.00;;;;;;5034607;28;20096;-81
2021/05/24 06:58:00;;;;;;;2.13;1.20;;;486.80;1638.40;;;;;;5017271;28;20163;-82
2021/05/24 07:00:26;;;;;;;4.43;1.15;;;486.90;1638.40;;;;;;5017909;28;20022;-82
2021/05/24 07:02:53;;;;;;;3.00;1.00;;;487.10;1612.80;;;;;;5020806;28;20025;-83
2021/05/24 07:05:19;;;;;;;2.60;1.10;;;487.20;1587.20;;;;;;5016950;28;20017;-83
2021/05/24 07:07:45;;;;;;;2.33;0.98;;;512.00;1561.60;;;;;;5015861;28;20056;-85
2021/05/24 07:10:12;;;;;;;0.80;0.70;;;512.10;1561.60;;;;;;5016349;28;20460;-83
2021/05/24 07:12:38;;;;;;;5.57;1.23;;;512.20;1561.60;;;;;;5016761;28;20028;-85
2021/05/24 07:15:06;;;;;;;1.48;1.08;;;512.30;1561.60;;;;;;5016594;28;20033;-87
2021/05/24 07:17:32;;;;;;;5.53;1.95;;;512.40;1510.40;;;;;;5017902;28;20057;-86
2021/05/24 07:20:06;;;;;;;5.05;2.00;;;512.20;1561.60;;;;;;5017489;28;20474;-86
2021/05/24 07:22:36;;;;;;;3.40;1.42;;;512.20;1561.60;;;;;;5036050;28;20091;-86
2021/05/24 07:25:03;;;;;;;6.78;1.63;;;512.20;1587.20;;;;;;5021490;28;20469;-88
2021/05/24 07:27:29;;;;;;;2.55;1.38;;;512.50;1587.20;;;;;;5023720;28;20033;-88
2021/05/24 07:29:56;;;;;;;2.78;1.35;;;512.70;1536.00;;;;;;5023426;28;20033;-86
2021/05/24 07:32:22;;;;;;;5.05;1.45;;;512.70;1587.20;;;;;;5024516;28;20028;-87
2021/05/24 07:34:47;;;;;;;4.38;1.85;;;537.60;1587.20;;;;;;5028074;28;20033;-88
2021/05/24 07:37:13;;;;;;;5.32;2.80;;;537.60;1536.00;;;;;;5022349;28;20022;-86
2021/05/24 07:39:48;;;;;;;1.98;1.40;;;512.90;1561.60;;;;;;5029430;28;20042;-86
2021/05/24 07:42:14;;;;;;;15.35;10.07;;;512.90;1561.60;;;;;;5028004;28;20017;-86
2021/05/24 07:44:45;;;;;;;5.78;1.50;;;537.60;1561.60;;;;;;5032792;28;20056;-86
2021/05/24 07:47:11;;;;;;;5.40;1.60;;;537.60;1612.80;;;;;;5033526;28;20025;-86
2021/05/24 07:49:37;;;;;;;6.22;1.67;;;512.90;1587.20;;;;;;5042298;28;20052;-86
2021/05/24 07:52:03;;;;;;;7.30;2.40;;;537.70;1587.20;;;;;;5043085;28;20025;-85
2021/05/24 07:54:38;;;;;;;6.20;2.50;;;537.90;1638.40;;;;;;5042918;28;20029;-85
2021/05/24 07:57:10;;;;;;;4.40;2.08;;;538.10;1638.40;;;;;;5033673;28;20055;-86
2021/05/24 07:59:42;;;;;;;2.88;1.63;;;538.40;1587.20;;;;;;5028596;28;20056;-86
2021/05/24 08:02:08;;;;;;;9.53;2.07;;;563.30;1587.20;;;;;;5022040;28;20036;-87
2021/05/24 08:04:34;;;;;;;6.20;1.42;;;563.30;1561.60;;;;;;5021001;28;20481;-87
2021/05/24 08:07:00;;;;;;;4.22;1.27;;;563.60;1561.60;;;;;;5016417;28;20050;-87
2021/05/24 08:09:32;;;;;;;3.20;1.77;;;563.80;1510.40;;;;;;5033128;28;20137;-86
2021/05/24 08:11:58;;;;;;;4.95;1.73;;;564.00;1484.80;;;;;;5020362;28;20021;-86
2021/05/24 08:14:23;;;;;;;2.70;1.75;;;563.70;1587.20;;;;;;5019663;28;20044;-86
2021/05/24 08:16:49;;;;;;;3.13;1.70;;;563.80;1587.20;;;;;;5019564;28;20719;-87
2021/05/24 08:19:16;;;;;;;3.30;1.50;;;564.10;1484.80;;;;;;5019232;28;20056;-87
2021/05/24 08:21:49;;;;;;;6.93;1.90;;;588.80;1484.80;;;;;;5019058;28;20031;-87
2021/05/24 08:24:15;;;;;;;;;;;589.20;1484.80;;;;;;5019720;28;20029;-85
2021/05/24 08:26:41;;;;;;;4.18;2.20;;;589.40;1459.20;;;;;;5019069;28;19954;-86
2021/05/24 08:29:07;;;;;;;6.55;1.77;;;564.10;1510.40;;;;;;5019118;28;20087;-86
2021/05/24 08:31:35;;;;;;;6.78;2.42;;;563.90;1561.60;;;;;;5018775;28;20053;-85
2021/05/24 08:34:01;;;;;;;4.13;2.08;;;564.10;1587.20;;;;;;5021403;28;20021;-86
2021/05/24 08:36:27;;;;;;;7.07;2.20;;;564.10;1536.00;;;;;;5023336;28;20028;-87
2021/05/24 08:38:53;;;;;;;3.17;1.98;;;564.00;1536.00;;;;;;5023937;28;20025;-89
2021/05/24 08:41:19;;;;;;;4.13;2.15;;;563.60;1587.20;;;;;;5025250;28;20021;-87
2021/05/24 08:43:45;;;;;;;5.45;3.33;;;563.60;1612.80;;;;;;5025705;28;20029;-91
2021/05/24 08:46:11;;;;;;;7.05;4.40;;;563.50;1612.80;;;;;;5025259;28;20029;-84
2021/05/24 08:48:41;;;;;;;6.20;2.75;;;563.60;1612.80;;;;;;5034903;28;20026;-86
2021/05/24 08:51:09;;;;;;;7.43;2.95;;;564.00;1638.40;;;;;;5040516;28;20059;-87
2021/05/24 08:53:39;;;;;;;7.32;3.78;;;564.00;1587.20;;;;;;5035628;28;20389;-85
2021/05/24 08:56:09;;;;;;;5.97;4.00;;;564.00;1587.20;;;;;;5036576;28;20044;-86
2021/05/24 08:58:35;;;;;;;5.22;3.80;;;564.00;1587.20;;;;;;5037703;28;20381;-86
2021/05/24 09:01:03;;;;;;;4.05;3.15;;;564.00;1612.80;;;;;;5056496;28;20060;-87
2021/05/24 09:03:32;;;;;;;4.15;2.63;;;563.90;1561.60;;;;;;5037884;28;20010;-87
2021/05/24 09:06:09;;;;;;;9.90;2.70;;;564.00;1587.20;;;;;;5035103;28;20022;-85
2021/05/24 09:08:38;;;;;;;3.72;2.25;;;563.90;1612.80;;;;;;5045701;28;20037;-86
2021/05/24 09:11:05;;;;;;;7.35;3.22;;;588.90;1536.00;;;;;;5040632;28;20123;-86
2021/05/24 09:13:34;;;;;;;11.23;3.80;;;589.20;1536.00;;;;;;5049334;28;20053;-86
2021/05/24 09:19:16;;;;;;;4.50;2.63;;;589.10;1510.40;;;;;;5060403;28;20083;-85
2021/05/24 09:22:00;;;;;;;4.90;2.65;;;589.00;1510.40;;;;;;5037960;28;20025;-85
2021/05/24 09:24:30;;;;;;;6.70;2.75;;;588.80;1510.40;;;;;;5038395;28;20025;-85
2021/05/24 09:27:01;;;;;;;4.97;2.00;;;588.90;1510.40;;;;;;5037711;28;20025;-86
2021/05/24 09:30:01;;;;;;;4.93;1.95;;;589.00;1536.00;;;;;;5038325;28;20124;-85
2021/05/24 09:32:29;;;;;;;3.35;1.98;;;588.80;1510.40;;;;;;5061618;28;20055;-85
2021/05/24 09:35:14;;;;;;;5.47;2.13;;;588.90;1510.40;;;;;;5044471;28;20021;-85
2021/05/24 09:37:54;;;;;;;3.05;2.00;;;588.90;1484.80;;;;;;5048783;28;20092;-86
2021/05/24 09:40:25;;;;;;;3.83;2.33;;;589.00;1484.80;;;;;;5042222;28;20032;-86
2021/05/24 09:42:52;;;;;;;3.17;1.63;;;588.90;1561.60;;;;;;5040776;28;20582;-86
2021/05/24 09:45:21;;;;;;;5.03;2.13;;;589.00;1510.40;;;;;;5041880;28;20071;-85
2021/05/24 09:47:49;;;;;;;5.18;1.70;;;588.90;1484.80;;;;;;5049026;28;20048;-85
2021/05/24 09:50:22;;;;;;;4.97;2.20;;;589.20;1459.20;;;;;;5053874;28;20058;-83
2021/05/24 09:52:53;;;;;;;6.65;1.95;;;589.30;1459.20;;;;;;5047044;28;20070;-85
2021/05/24 09:55:29;;;;;;;3.00;1.83;;;589.00;1484.80;;;;;;5039167;28;20048;-85
2021/05/24 09:58:09;;;;;;;3.75;2.00;;;588.80;1484.80;;;;;;5063916;28;20028;-87
2021/05/24 10:01:02;;;;;;;5.07;1.45;;;589.00;1510.40;;;;;;5037675;28;20033;-86
2021/05/24 10:03:31;;;;;;;3.85;1.92;;;589.10;1510.40;;;;;;5046921;28;20021;-85
2021/05/24 10:05:57;;;;;;;6.03;2.63;;;589.40;1484.80;;;;;;5068150;28;20050;-87
2021/05/24 10:08:24;;;;;;;3.45;1.58;;;589.50;1459.20;;;;;;5039457;28;20052;-86
2021/05/24 10:11:08;;;;;;;2.35;1.50;;;589.70;1433.60;;;;;;5044093;28;20057;-85
2021/05/24 10:14:02;;;;;;;4.72;1.83;;;614.60;1433.60;;;;;;5027888;28;20021;-87
2021/05/24 10:16:47;;;;;;;4.88;1.90;;;614.90;1382.40;;;;;;5030264;28;20049;-86
2021/05/24 10:19:20;;;;;;;5.40;2.30;;;615.30;1356.80;;;;;;5019821;28;20034;-86
2021/05/24 10:22:09;;;;;;;3.75;1.98;;;640.00;1356.80;;;;;;5021691;28;20185;-88
2021/05/24 10:24:38;;;;;;;3.38;1.90;;;640.10;1331.20;;;;;;5017624;28;20053;-88
2021/05/24 10:27:16;;;;;;;2.67;2.05;;;640.20;1331.20;;;;;;5002962;28;20041;-88
2021/05/24 10:29:42;;;;;;;5.20;2.58;;;640.80;1305.60;;;;;;4998811;28;20034;-87
2021/05/24 10:32:46;;;;;;;4.88;2.97;;;665.60;1305.60;;;;;;5012116;28;20040;-88
2021/05/24 10:35:33;;;;;;;3.20;1.58;;;666.10;1254.40;;;;;;5028670;28;20044;-87
2021/05/24 10:38:38;;;;;;;5.82;2.85;;;691.70;1177.60;;;;;;5031841;28;20026;-87
2021/05/24 10:43:50;;;;;;;3.78;1.95;;;717.00;1152.00;;;;;;5829461;23;20104;-88
2021/05/24 10:49:50;;;;;;;4.47;1.55;;;742.80;1075.20;;;;;;5548946;23;20053;-89
2021/05/24 10:53:00;;;;;;;3.80;2.42;;;768.90;998.40;;;;;;5031802;28;20074;-87
2021/05/24 10:55:57;;;;;;;2.65;1.67;;;768.50;1024.00;;;;;;5030519;23;20061;-86
2021/05/24 10:58:24;;;;;;;4.00;2.00;;;743.30;1075.20;;;;;;4912049;29;20040;-87
2021/05/24 11:00:59;;;;;;;3.13;2.35;;;768.90;998.40;;;;;;4941639;23;20053;-87
2021/05/24 11:03:29;;;;;;;3.20;1.80;;;819.60;947.20;;;;;;5006732;28;20030;-86
2021/05/24 11:06:24;;;;;;;2.50;1.80;;;845.00;921.60;;;;;;4999108;28;20022;-87
2021/05/24 11:09:14;;;;;;;3.50;2.45;;;845.70;896.00;;;;;;4997404;28;20136;-88
2021/05/24 11:11:42;;;;;;;5.85;2.90;;;845.70;896.00;;;;;;5004132;28;20161;-83
2021/05/24 11:14:09;;;;;;;4.43;2.75;;;896.00;870.40;;;;;;5021246;28;20032;-84
2021/05/24 11:16:40;;;;;;;2.67;1.88;;;947.50;793.60;;;;;;5005165;28;20092;-81
2021/05/24 11:19:11;;;;;;;6.75;2.47;;;947.70;768.00;;;;;;5021998;28;20049;-86
2021/05/24 11:21:38;;;;;;;14.43;3.08;;;972.90;768.00;;;;;;5006391;28;20021;-86
2021/05/24 11:27:16;;;;;;;8.55;2.35;;;973.20;742.40;;;;;;5006486;28;20041;-84
2021/05/24 11:29:49;;;;;;;3.97;2.28;;;947.40;793.60;;;;;;5002445;28;20034;-86
2021/05/24 11:32:28;;;;;;;6.70;2.88;;;948.00;768.00;;;;;;5004034;28;20035;-86
2021/05/24 11:34:55;;;;;;;3.60;2.28;;;1024.00;716.80;;;;;;4999827;28;20040;-85
2021/05/24 11:37:41;;;;;;;4.22;2.83;;;1050.20;691.20;;;;;;4998766;28;20069;-84
2021/05/24 11:40:17;;;;;;;4.30;2.83;;;1050.00;691.20;;;;;;5011071;28;20029;-86
2021/05/24 11:42:52;;;;;;;5.63;2.70;;;1024.40;665.60;;;;;;4992383;28;20094;-85
2021/05/24 11:45:23;;;;;;;5.40;2.83;;;1024.30;691.20;;;;;;4975322;28;20038;-85
2021/05/24 11:48:00;;;;;;;4.40;2.80;;;947.70;768.00;;;;;;5008111;28;20121;-84
2021/05/24 11:50:36;;;;;;;8.25;3.97;;;948.10;742.40;;;;;;5008721;28;20039;-84
2021/05/24 11:53:01;;;;;;;6.43;3.38;;;973.00;742.40;;;;;;5010035;28;20049;-84
2021/05/24 11:55:40;;;;;;;5.38;3.13;;;973.70;742.40;;;;;;5004611;28;20502;-83
2021/05/24 11:58:11;;;;;;;5.53;4.13;;;947.70;742.40;;;;;;5004240;28;20057;-83
2021/05/24 12:00:42;;;;;;;4.78;3.92;;;947.30;793.60;;;;;;5007660;28;20025;-85
2021/05/24 12:03:08;;;;;;;6.57;3.65;;;922.10;793.60;;;;;;5004311;28;20077;-84
2021/05/24 12:05:40;;;;;;;5.28;2.75;;;947.70;768.00;;;;;;5003406;28;20089;-84
2021/05/24 12:08:06;;;;;;;5.22;3.80;;;947.60;742.40;;;;;;4983695;28;20030;-82
2021/05/24 12:10:34;;;;;;;7.95;3.72;;;947.20;768.00;;;;;;4996448;28;20383;-85
2021/05/24 12:13:00;;;;;;;5.03;2.95;;;948.10;742.40;;;;;;5007093;28;20106;-81
2021/05/24 12:15:27;;;;;;;6.10;4.07;;;948.10;742.40;;;;;;5006415;28;20398;-85
2021/05/24 12:18:04;;;;;;;6.47;4.60;;;973.40;768.00;;;;;;5004796;28;20109;-89
2021/05/24 12:20:30;;;;;;;6.68;3.75;;;973.20;768.00;;;;;;4999765;28;20430;-85
2021/05/24 12:22:56;;;;;;;6.60;3.92;;;948.00;768.00;;;;;;5000913;28;20034;-90
2021/05/24 12:25:24;;;;;;;6.25;3.25;;;947.50;768.00;;;;;;5012335;28;20026;-86
2021/05/24 12:27:51;;;;;;;8.25;3.50;;;947.40;768.00;;;;;;5032777;28;20089;-87
2021/05/24 12:30:43;;;;;;;4.38;3.75;;;947.90;768.00;;;;;;5014308;28;20042;-86
2021/05/24 12:33:11;;;;;;;4.67;3.17;;;972.90;793.60;;;;;;4946935;29;20043;-87
2021/05/24 12:35:48;;;;;;;4.95;2.47;;;921.90;819.20;;;;;;4937893;29;20070;-85
2021/05/24 12:38:20;;;;;;;3.70;2.97;;;896.80;793.60;;;;;;4936484;29;20036;-83
2021/05/24 12:40:55;;;;;;;7.10;4.10;;;896.00;870.40;;;;;;4947909;29;20040;-84
2021/05/24 12:43:21;;;;;;;8.25;4.35;;;870.60;921.60;;;;;;4928039;29;20127;-88
2021/05/24 12:45:47;;;;;;;5.40;3.33;;;870.50;896.00;;;;;;4921373;29;20063;-87
2021/05/24 12:48:30;;;;;;;4.80;3.10;;;845.60;921.60;;;;;;4922197;29;20128;-84
2021/05/24 12:50:58;;;;;;;7.13;3.20;;;845.20;947.20;;;;;;4921262;29;20051;-88
2021/05/24 12:53:26;;;;;;;7.35;3.40;;;845.30;921.60;;;;;;4921375;29;20064;-85
2021/05/24 12:55:53;;;;;;;5.65;3.63;;;844.90;972.80;;;;;;4921460;29;20039;-83
2021/05/24 12:58:21;;;;;;;4.22;2.92;;;820.10;947.20;;;;;;4937323;29;20040;-86
2021/05/24 13:00:54;;;;;;;7.20;3.47;;;819.50;972.80;;;;;;4937216;29;20091;-85
2021/05/24 13:03:48;;;;;;;5.85;3.35;;;794.50;998.40;;;;;;4933544;29;20459;-81
2021/05/24 13:06:16;;;;;;;6.30;3.38;;;794.30;1024.00;;;;;;4922701;29;20118;-82